sensor_id;sensor_type;location;lat;lon;timestamp;temperature;humidity
36132;DHT22;22185;48.738;9.324;2023-05-07T00:01:35;14.00;99.90
36132;DHT22;22185;48.738;9.324;2023-05-07T00:03:36;14.00;99.90
36132;DHT22;22185;48.738;9.324;2023-05-07T00:05:39;14.00;99.90
36132;DHT22;22185;48.738;9.324;2023-05-07T00:07:41;14.10;99.90
36132;DHT22;22185;48.738;9.324;2023-05-07T00:09:43;14.10;99.90
36132;DHT22;22185;48.738;9.324;2023-05-07T00:11:45;13.90;99.90
36132;DHT22;22185;48.738;9.324;2023-05-07T00:13:47;13.90;99.90
36132;DHT22;22185;48.738;9.324;2023-05-07T00:15:49;13.90;99.90
36132;DHT22;22185;48.738;9.324;2023-05-07T00:17:51;14.00;99.90
36132;DHT22;22185;48.738;9.324;2023-05-07T00:19:52;13.90;99.90
36132;DHT22;22185;48.738;9.324;2023-05-07T00:21:54;13.80;99.90
36132;DHT22;22185;48.738;9.324;2023-05-07T00:23:57;13.80;99.90
36132;DHT22;22185;48.738;9.324;2023-05-07T00:25:59;13.90;99.90
36132;DHT22;22185;48.738;9.324;2023-05-07T00:28:00;13.70;99.90
36132;DHT22;22185;48.738;9.324;2023-05-07T00:30:05;13.70;99.90
36132;DHT22;22185;48.738;9.324;2023-05-07T00:32:07;13.80;99.90
36132;DHT22;22185;48.738;9.324;2023-05-07T00:34:09;13.80;99.90
36132;DHT22;22185;48.738;9.324;2023-05-07T00:36:11;13.70;99.90
36132;DHT22;22185;48.738;9.324;2023-05-07T00:38:13;13.70;99.90
36132;DHT22;22185;48.738;9.324;2023-05-07T00:40:15;13.60;99.90
36132;DHT22;22185;48.738;9.324;2023-05-07T00:42:17;13.60;99.90
36132;DHT22;22185;48.738;9.324;2023-05-07T00:44:19;13.50;99.90
36132;DHT22;22185;48.738;9.324;2023-05-07T00:46:21;13.50;99.90
36132;DHT22;22185;48.738;9.324;2023-05-07T00:48:23;13.60;99.90
36132;DHT22;22185;48.738;9.324;2023-05-07T00:50:26;13.60;99.90
36132;DHT22;22185;48.738;9.324;2023-05-07T00:52:28;13.50;99.90
36132;DHT22;22185;48.738;9.324;2023-05-07T00:54:31;13.50;99.90
36132;DHT22;22185;48.738;9.324;2023-05-07T00:56:33;13.40;99.90
36132;DHT22;22185;48.738;9.324;2023-05-07T00:58:34;13.60;99.90
36132;DHT22;22185;48.738;9.324;2023-05-07T01:00:36;13.60;99.90
36132;DHT22;22185;48.738;9.324;2023-05-07T01:02:38;13.50;99.90
36132;DHT22;22185;48.738;9.324;2023-05-07T01:04:41;13.50;99.90
36132;DHT22;22185;48.738;9.324;2023-05-07T01:06:44;13.40;99.90
36132;DHT22;22185;48.738;9.324;2023-05-07T01:08:46;13.50;99.90
36132;DHT22;22185;48.738;9.324;2023-05-07T01:10:49;13.50;99.90
36132;DHT22;22185;48.738;9.324;2023-05-07T01:12:50;13.50;99.90
36132;DHT22;22185;48.738;9.324;2023-05-07T01:14:53;13.70;99.90
36132;DHT22;22185;48.738;9.324;2023-05-07T01:16:55;13.40;99.90
36132;DHT22;22185;48.738;9.324;2023-05-07T01:18:56;13.40;99.90
36132;DHT22;22185;48.738;9.324;2023-05-07T01:20:58;13.40;99.90
36132;DHT22;22185;48.738;9.324;2023-05-07T01:23:00;13.40;99.90
36132;DHT22;22185;48.738;9.324;2023-05-07T01:25:06;13.30;99.90
36132;DHT22;22185;48.738;9.324;2023-05-07T01:27:08;13.30;99.90
36132;DHT22;22185;48.738;9.324;2023-05-07T01:29:10;13.30;99.90
36132;DHT22;22185;48.738;9.324;2023-05-07T01:31:12;13.20;99.90
36132;DHT22;22185;48.738;9.324;2023-05-07T01:33:15;13.20;99.90
36132;DHT22;22185;48.738;9.324;2023-05-07T01:35:21;13.20;99.90
36132;DHT22;22185;48.738;9.324;2023-05-07T01:37:24;13.30;99.90
36132;DHT22;22185;48.738;9.324;2023-05-07T01:39:27;13.20;99.90
36132;DHT22;22185;48.738;9.324;2023-05-07T01:41:29;13.10;99.90
36132;DHT22;22185;48.738;9.324;2023-05-07T01:43:31;13.30;99.90
36132;DHT22;22185;48.738;9.324;2023-05-07T01:45:32;13.20;99.90
36132;DHT22;22185;48.738;9.324;2023-05-07T01:47:35;13.10;99.90
36132;DHT22;22185;48.738;9.324;2023-05-07T01:49:37;13.20;99.90
36132;DHT22;22185;48.738;9.324;2023-05-07T01:51:39;13.00;99.90
36132;DHT22;22185;48.738;9.324;2023-05-07T01:53:41;12.90;99.90
36132;DHT22;22185;48.738;9.324;2023-05-07T01:55:44;12.90;99.90
36132;DHT22;22185;48.738;9.324;2023-05-07T01:57:46;13.00;99.90
36132;DHT22;22185;48.738;9.324;2023-05-07T01:59:48;13.00;99.90
36132;DHT22;22185;48.738;9.324;2023-05-07T02:01:49;12.90;99.90
36132;DHT22;22185;48.738;9.324;2023-05-07T02:03:51;12.70;99.90
36132;DHT22;22185;48.738;9.324;2023-05-07T02:05:53;13.00;99.90
36132;DHT22;22185;48.738;9.324;2023-05-07T02:07:55;12.90;99.90
36132;DHT22;22185;48.738;9.324;2023-05-07T02:09:56;12.90;99.90
36132;DHT22;22185;48.738;9.324;2023-05-07T02:11:58;12.90;99.90
36132;DHT22;22185;48.738;9.324;2023-05-07T02:14:00;12.90;99.90
36132;DHT22;22185;48.738;9.324;2023-05-07T02:16:02;12.90;99.90
36132;DHT22;22185;48.738;9.324;2023-05-07T02:18:04;12.90;99.90
36132;DHT22;22185;48.738;9.324;2023-05-07T02:20:07;12.80;99.90
36132;DHT22;22185;48.738;9.324;2023-05-07T02:22:14;12.70;99.90
36132;DHT22;22185;48.738;9.324;2023-05-07T02:24:16;12.60;99.90
36132;DHT22;22185;48.738;9.324;2023-05-07T02:26:18;12.70;99.90
36132;DHT22;22185;48.738;9.324;2023-05-07T02:28:20;12.80;99.90
36132;DHT22;22185;48.738;9.324;2023-05-07T02:30:21;12.60;99.90
36132;DHT22;22185;48.738;9.324;2023-05-07T02:32:23;12.60;99.90
36132;DHT22;22185;48.738;9.324;2023-05-07T02:34:25;12.80;99.90
36132;DHT22;22185;48.738;9.324;2023-05-07T02:36:26;12.80;99.90
36132;DHT22;22185;48.738;9.324;2023-05-07T02:38:28;12.70;99.90
36132;DHT22;22185;48.738;9.324;2023-05-07T02:40:30;12.70;99.90
36132;DHT22;22185;48.738;9.324;2023-05-07T02:42:34;12.80;99.90
36132;DHT22;22185;48.738;9.324;2023-05-07T02:44:36;12.60;99.90
36132;DHT22;22185;48.738;9.324;2023-05-07T02:46:38;12.70;99.90
36132;DHT22;22185;48.738;9.324;2023-05-07T02:48:40;12.50;99.90
36132;DHT22;22185;48.738;9.324;2023-05-07T02:50:41;12.50;99.90
36132;DHT22;22185;48.738;9.324;2023-05-07T02:52:43;12.60;99.90
36132;DHT22;22185;48.738;9.324;2023-05-07T02:54:45;12.70;99.90
36132;DHT22;22185;48.738;9.324;2023-05-07T02:56:46;12.60;99.90
36132;DHT22;22185;48.738;9.324;2023-05-07T02:58:50;12.60;99.90
36132;DHT22;22185;48.738;9.324;2023-05-07T03:00:52;12.50;99.90
36132;DHT22;22185;48.738;9.324;2023-05-07T03:02:53;12.40;99.90
36132;DHT22;22185;48.738;9.324;2023-05-07T03:04:56;12.50;99.90
36132;DHT22;22185;48.738;9.324;2023-05-07T03:06:58;12.30;99.90
36132;DHT22;22185;48.738;9.324;2023-05-07T03:08:59;12.30;99.90
36132;DHT22;22185;48.738;9.324;2023-05-07T03:11:01;12.20;99.90
36132;DHT22;22185;48.738;9.324;2023-05-07T03:13:03;12.30;99.90
36132;DHT22;22185;48.738;9.324;2023-05-07T03:15:05;12.20;99.90
36132;DHT22;22185;48.738;9.324;2023-05-07T03:17:07;12.30;99.90
36132;DHT22;22185;48.738;9.324;2023-05-07T03:19:09;12.20;99.90
36132;DHT22;22185;48.738;9.324;2023-05-07T03:21:11;12.20;99.90
36132;DHT22;22185;48.738;9.324;2023-05-07T03:23:12;12.20;99.90
36132;DHT22;22185;48.738;9.324;2023-05-07T03:25:14;12.00;99.90
36132;DHT22;22185;48.738;9.324;2023-05-07T03:27:16;12.00;99.90
36132;DHT22;22185;48.738;9.324;2023-05-07T03:29:18;12.10;99.90
36132;DHT22;22185;48.738;9.324;2023-05-07T03:31:19;12.00;99.90
36132;DHT22;22185;48.738;9.324;2023-05-07T03:33:21;12.00;99.90
36132;DHT22;22185;48.738;9.324;2023-05-07T03:35:23;12.00;99.90
36132;DHT22;22185;48.738;9.324;2023-05-07T03:37:24;12.00;99.90
36132;DHT22;22185;48.738;9.324;2023-05-07T03:39:26;12.00;99.90
36132;DHT22;22185;48.738;9.324;2023-05-07T03:41:28;12.00;99.90
36132;DHT22;22185;48.738;9.324;2023-05-07T03:43:31;11.90;99.90
36132;DHT22;22185;48.738;9.324;2023-05-07T03:45:32;11.90;99.90
36132;DHT22;22185;48.738;9.324;2023-05-07T03:47:34;11.90;99.90
36132;DHT22;22185;48.738;9.324;2023-05-07T03:49:36;11.90;99.90
36132;DHT22;22185;48.738;9.324;2023-05-07T03:51:38;11.90;99.90
36132;DHT22;22185;48.738;9.324;2023-05-07T03:53:39;11.80;99.90
36132;DHT22;22185;48.738;9.324;2023-05-07T03:55:41;11.80;99.90
36132;DHT22;22185;48.738;9.324;2023-05-07T03:57:43;11.80;99.90
36132;DHT22;22185;48.738;9.324;2023-05-07T03:59:45;11.80;99.90
36132;DHT22;22185;48.738;9.324;2023-05-07T04:01:47;11.80;99.90
36132;DHT22;22185;48.738;9.324;2023-05-07T04:03:50;11.80;99.90
36132;DHT22;22185;48.738;9.324;2023-05-07T04:05:51;11.70;99.90
36132;DHT22;22185;48.738;9.324;2023-05-07T04:07:53;11.70;99.90
36132;DHT22;22185;48.738;9.324;2023-05-07T04:09:55;11.80;99.90
36132;DHT22;22185;48.738;9.324;2023-05-07T04:11:56;11.70;99.90
36132;DHT22;22185;48.738;9.324;2023-05-07T04:13:58;11.70;99.90
36132;DHT22;22185;48.738;9.324;2023-05-07T04:16:00;11.70;99.90
36132;DHT22;22185;48.738;9.324;2023-05-07T04:18:02;11.70;99.90
36132;DHT22;22185;48.738;9.324;2023-05-07T04:20:04;11.70;99.90
36132;DHT22;22185;48.738;9.324;2023-05-07T04:22:09;11.70;99.90
36132;DHT22;22185;48.738;9.324;2023-05-07T04:24:11;11.70;99.90
36132;DHT22;22185;48.738;9.324;2023-05-07T04:26:13;11.60;99.90
36132;DHT22;22185;48.738;9.324;2023-05-07T04:28:15;11.60;99.90
36132;DHT22;22185;48.738;9.324;2023-05-07T04:30:16;11.70;99.90
36132;DHT22;22185;48.738;9.324;2023-05-07T04:32:18;11.70;99.90
36132;DHT22;22185;48.738;9.324;2023-05-07T04:34:20;11.70;99.90
36132;DHT22;22185;48.738;9.324;2023-05-07T04:36:22;11.70;99.90
36132;DHT22;22185;48.738;9.324;2023-05-07T04:38:24;11.70;99.90
36132;DHT22;22185;48.738;9.324;2023-05-07T04:40:27;11.60;99.90
36132;DHT22;22185;48.738;9.324;2023-05-07T04:42:28;11.70;99.90
36132;DHT22;22185;48.738;9.324;2023-05-07T04:44:30;11.80;99.90
36132;DHT22;22185;48.738;9.324;2023-05-07T04:46:32;11.80;99.90
36132;DHT22;22185;48.738;9.324;2023-05-07T04:48:34;11.80;99.90
36132;DHT22;22185;48.738;9.324;2023-05-07T04:50:36;11.80;99.90
36132;DHT22;22185;48.738;9.324;2023-05-07T04:52:37;11.80;99.90
36132;DHT22;22185;48.738;9.324;2023-05-07T04:54:39;11.80;99.90
36132;DHT22;22185;48.738;9.324;2023-05-07T04:56:41;11.80;99.90
36132;DHT22;22185;48.738;9.324;2023-05-07T04:58:42;11.80;99.90
36132;DHT22;22185;48.738;9.324;2023-05-07T05:00:44;11.80;99.90
36132;DHT22;22185;48.738;9.324;2023-05-07T05:02:46;11.80;99.90
36132;DHT22;22185;48.738;9.324;2023-05-07T05:04:48;11.80;99.90
36132;DHT22;22185;48.738;9.324;2023-05-07T05:06:49;11.80;99.90
36132;DHT22;22185;48.738;9.324;2023-05-07T05:08:51;11.80;99.90
36132;DHT22;22185;48.738;9.324;2023-05-07T05:10:53;11.80;99.90
36132;DHT22;22185;48.738;9.324;2023-05-07T05:12:54;11.80;99.90
36132;DHT22;22185;48.738;9.324;2023-05-07T05:14:56;11.90;99.90
36132;DHT22;22185;48.738;9.324;2023-05-07T05:16:58;12.00;99.90
36132;DHT22;22185;48.738;9.324;2023-05-07T05:19:01;12.00;99.90
36132;DHT22;22185;48.738;9.324;2023-05-07T05:21:02;12.00;99.90
36132;DHT22;22185;48.738;9.324;2023-05-07T05:23:04;12.10;99.90
36132;DHT22;22185;48.738;9.324;2023-05-07T05:25:07;12.30;99.90
36132;DHT22;22185;48.738;9.324;2023-05-07T05:27:09;12.20;99.90
36132;DHT22;22185;48.738;9.324;2023-05-07T05:29:10;12.20;99.90
36132;DHT22;22185;48.738;9.324;2023-05-07T05:31:12;12.20;99.90
36132;DHT22;22185;48.738;9.324;2023-05-07T05:33:15;12.20;99.90
36132;DHT22;22185;48.738;9.324;2023-05-07T05:35:17;12.20;99.90
36132;DHT22;22185;48.738;9.324;2023-05-07T05:37:18;12.30;99.90
36132;DHT22;22185;48.738;9.324;2023-05-07T05:39:20;12.40;99.90
36132;DHT22;22185;48.738;9.324;2023-05-07T05:41:22;12.50;99.90
36132;DHT22;22185;48.738;9.324;2023-05-07T05:43:24;12.40;99.90
36132;DHT22;22185;48.738;9.324;2023-05-07T05:45:26;12.50;99.90
36132;DHT22;22185;48.738;9.324;2023-05-07T05:47:27;12.50;99.90
36132;DHT22;22185;48.738;9.324;2023-05-07T05:49:29;12.50;99.90
36132;DHT22;22185;48.738;9.324;2023-05-07T05:51:31;12.70;99.90
36132;DHT22;22185;48.738;9.324;2023-05-07T05:53:33;12.70;99.90
36132;DHT22;22185;48.738;9.324;2023-05-07T05:55:34;12.70;99.90
36132;DHT22;22185;48.738;9.324;2023-05-07T05:57:36;12.80;99.90
36132;DHT22;22185;48.738;9.324;2023-05-07T05:59:38;12.90;99.90
36132;DHT22;22185;48.738;9.324;2023-05-07T06:01:40;13.00;99.90
36132;DHT22;22185;48.738;9.324;2023-05-07T06:03:42;13.00;99.90
36132;DHT22;22185;48.738;9.324;2023-05-07T06:05:43;13.10;99.90
36132;DHT22;22185;48.738;9.324;2023-05-07T06:07:45;13.20;99.90
36132;DHT22;22185;48.738;9.324;2023-05-07T06:09:47;13.20;99.90
36132;DHT22;22185;48.738;9.324;2023-05-07T06:11:48;13.30;99.90
36132;DHT22;22185;48.738;9.324;2023-05-07T06:13:51;13.40;99.90
36132;DHT22;22185;48.738;9.324;2023-05-07T06:15:52;13.70;99.90
36132;DHT22;22185;48.738;9.324;2023-05-07T06:17:54;13.70;99.90
36132;DHT22;22185;48.738;9.324;2023-05-07T06:19:58;13.70;99.90
36132;DHT22;22185;48.738;9.324;2023-05-07T06:22:00;13.80;99.90
36132;DHT22;22185;48.738;9.324;2023-05-07T06:24:03;13.90;99.90
36132;DHT22;22185;48.738;9.324;2023-05-07T06:26:05;14.00;99.90
36132;DHT22;22185;48.738;9.324;2023-05-07T06:28:06;14.00;99.90
36132;DHT22;22185;48.738;9.324;2023-05-07T06:30:10;14.20;99.90
36132;DHT22;22185;48.738;9.324;2023-05-07T06:32:12;14.30;99.90
36132;DHT22;22185;48.738;9.324;2023-05-07T06:34:14;14.30;99.90
36132;DHT22;22185;48.738;9.324;2023-05-07T06:36:16;14.50;99.90
36132;DHT22;22185;48.738;9.324;2023-05-07T06:38:18;14.50;99.90
36132;DHT22;22185;48.738;9.324;2023-05-07T06:40:19;14.50;99.90
36132;DHT22;22185;48.738;9.324;2023-05-07T06:42:21;14.60;99.90
36132;DHT22;22185;48.738;9.324;2023-05-07T06:44:23;14.70;99.90
36132;DHT22;22185;48.738;9.324;2023-05-07T06:46:24;14.80;99.90
36132;DHT22;22185;48.738;9.324;2023-05-07T06:48:27;14.70;99.90
36132;DHT22;22185;48.738;9.324;2023-05-07T06:50:28;14.90;99.90
36132;DHT22;22185;48.738;9.324;2023-05-07T06:52:30;14.70;99.90
36132;DHT22;22185;48.738;9.324;2023-05-07T06:54:32;14.80;99.90
36132;DHT22;22185;48.738;9.324;2023-05-07T06:56:33;14.80;99.90
36132;DHT22;22185;48.738;9.324;2023-05-07T06:58:36;14.80;99.90
36132;DHT22;22185;48.738;9.324;2023-05-07T07:00:37;14.70;99.90
36132;DHT22;22185;48.738;9.324;2023-05-07T07:02:39;14.70;99.90
36132;DHT22;22185;48.738;9.324;2023-05-07T07:04:41;14.80;99.90
36132;DHT22;22185;48.738;9.324;2023-05-07T07:06:43;14.90;99.90
36132;DHT22;22185;48.738;9.324;2023-05-07T07:08:45;15.00;99.90
36132;DHT22;22185;48.738;9.324;2023-05-07T07:10:47;15.10;99.90
36132;DHT22;22185;48.738;9.324;2023-05-07T07:12:48;15.30;99.90
36132;DHT22;22185;48.738;9.324;2023-05-07T07:14:50;15.30;99.90
36132;DHT22;22185;48.738;9.324;2023-05-07T07:16:52;15.50;99.90
36132;DHT22;22185;48.738;9.324;2023-05-07T07:18:53;15.70;99.90
36132;DHT22;22185;48.738;9.324;2023-05-07T07:20:55;15.60;99.90
36132;DHT22;22185;48.738;9.324;2023-05-07T07:22:57;15.80;99.90
36132;DHT22;22185;48.738;9.324;2023-05-07T07:24:59;15.90;99.90
36132;DHT22;22185;48.738;9.324;2023-05-07T07:27:00;16.10;99.90
36132;DHT22;22185;48.738;9.324;2023-05-07T07:29:02;16.40;99.90
36132;DHT22;22185;48.738;9.324;2023-05-07T07:31:04;16.40;99.90
36132;DHT22;22185;48.738;9.324;2023-05-07T07:33:05;16.40;99.90
36132;DHT22;22185;48.738;9.324;2023-05-07T07:35:07;16.50;99.90
36132;DHT22;22185;48.738;9.324;2023-05-07T07:37:09;16.80;99.90
36132;DHT22;22185;48.738;9.324;2023-05-07T07:39:11;16.70;99.90
36132;DHT22;22185;48.738;9.324;2023-05-07T07:41:12;17.00;99.90
36132;DHT22;22185;48.738;9.324;2023-05-07T07:43:14;17.10;99.90
36132;DHT22;22185;48.738;9.324;2023-05-07T07:45:16;17.30;99.90
36132;DHT22;22185;48.738;9.324;2023-05-07T07:47:18;17.40;99.90
36132;DHT22;22185;48.738;9.324;2023-05-07T07:49:19;17.50;99.90
36132;DHT22;22185;48.738;9.324;2023-05-07T07:51:21;17.60;99.90
36132;DHT22;22185;48.738;9.324;2023-05-07T07:53:23;17.90;99.90
36132;DHT22;22185;48.738;9.324;2023-05-07T07:55:24;18.00;99.90
36132;DHT22;22185;48.738;9.324;2023-05-07T07:57:27;17.90;99.90
36132;DHT22;22185;48.738;9.324;2023-05-07T07:59:29;18.00;99.90
36132;DHT22;22185;48.738;9.324;2023-05-07T08:01:30;18.00;99.90
36132;DHT22;22185;48.738;9.324;2023-05-07T08:03:32;18.10;99.90
36132;DHT22;22185;48.738;9.324;2023-05-07T08:05:35;18.50;99.90
36132;DHT22;22185;48.738;9.324;2023-05-07T08:07:37;18.50;99.90
36132;DHT22;22185;48.738;9.324;2023-05-07T08:09:39;18.70;99.90
36132;DHT22;22185;48.738;9.324;2023-05-07T08:11:41;18.80;99.90
36132;DHT22;22185;48.738;9.324;2023-05-07T08:13:43;18.80;99.90
36132;DHT22;22185;48.738;9.324;2023-05-07T08:15:45;18.60;99.90
36132;DHT22;22185;48.738;9.324;2023-05-07T08:17:46;18.70;99.90
36132;DHT22;22185;48.738;9.324;2023-05-07T08:19:48;18.80;99.90
36132;DHT22;22185;48.738;9.324;2023-05-07T08:21:50;18.90;99.90
36132;DHT22;22185;48.738;9.324;2023-05-07T08:23:52;19.00;99.90
36132;DHT22;22185;48.738;9.324;2023-05-07T08:25:53;19.20;99.90
36132;DHT22;22185;48.738;9.324;2023-05-07T08:27:55;19.20;99.90
36132;DHT22;22185;48.738;9.324;2023-05-07T08:29:57;19.30;99.90
36132;DHT22;22185;48.738;9.324;2023-05-07T08:31:58;19.40;99.90
36132;DHT22;22185;48.738;9.324;2023-05-07T08:34:00;19.30;99.90
36132;DHT22;22185;48.738;9.324;2023-05-07T08:36:02;19.40;99.90
36132;DHT22;22185;48.738;9.324;2023-05-07T08:38:03;19.50;99.90
36132;DHT22;22185;48.738;9.324;2023-05-07T08:40:05;19.50;99.90
36132;DHT22;22185;48.738;9.324;2023-05-07T08:42:11;19.90;99.90
36132;DHT22;22185;48.738;9.324;2023-05-07T08:44:14;19.70;99.90
36132;DHT22;22185;48.738;9.324;2023-05-07T08:46:17;19.80;99.90
36132;DHT22;22185;48.738;9.324;2023-05-07T08:48:19;19.90;99.90
36132;DHT22;22185;48.738;9.324;2023-05-07T08:50:23;20.00;99.90
36132;DHT22;22185;48.738;9.324;2023-05-07T08:52:25;20.00;99.90
36132;DHT22;22185;48.738;9.324;2023-05-07T08:54:27;20.10;99.90
36132;DHT22;22185;48.738;9.324;2023-05-07T08:56:30;20.10;99.90
36132;DHT22;22185;48.738;9.324;2023-05-07T08:58:32;20.40;99.90
36132;DHT22;22185;48.738;9.324;2023-05-07T09:00:34;20.30;99.90
36132;DHT22;22185;48.738;9.324;2023-05-07T09:02:37;20.40;99.90
36132;DHT22;22185;48.738;9.324;2023-05-07T09:04:39;20.30;99.90
36132;DHT22;22185;48.738;9.324;2023-05-07T09:06:40;20.40;99.90
36132;DHT22;22185;48.738;9.324;2023-05-07T09:08:50;20.60;99.90
36132;DHT22;22185;48.738;9.324;2023-05-07T09:10:52;20.60;99.90
36132;DHT22;22185;48.738;9.324;2023-05-07T09:12:54;20.70;99.90
36132;DHT22;22185;48.738;9.324;2023-05-07T09:14:56;20.70;99.90
36132;DHT22;22185;48.738;9.324;2023-05-07T09:16:57;20.70;99.90
36132;DHT22;22185;48.738;9.324;2023-05-07T09:18:59;21.00;99.90
36132;DHT22;22185;48.738;9.324;2023-05-07T09:21:04;21.00;99.90
36132;DHT22;22185;48.738;9.324;2023-05-07T09:23:06;21.30;99.90
36132;DHT22;22185;48.738;9.324;2023-05-07T09:25:08;21.30;99.90
36132;DHT22;22185;48.738;9.324;2023-05-07T09:27:11;21.30;99.90
36132;DHT22;22185;48.738;9.324;2023-05-07T09:29:15;21.30;99.90
36132;DHT22;22185;48.738;9.324;2023-05-07T09:31:17;21.50;99.90
36132;DHT22;22185;48.738;9.324;2023-05-07T09:33:22;21.70;99.90
36132;DHT22;22185;48.738;9.324;2023-05-07T09:35:28;21.80;99.90
36132;DHT22;22185;48.738;9.324;2023-05-07T09:37:30;21.80;99.90
36132;DHT22;22185;48.738;9.324;2023-05-07T09:39:42;21.80;99.90
36132;DHT22;22185;48.738;9.324;2023-05-07T09:41:47;22.20;99.90
36132;DHT22;22185;48.738;9.324;2023-05-07T09:43:53;22.10;99.90
36132;DHT22;22185;48.738;9.324;2023-05-07T09:45:55;22.10;99.90
36132;DHT22;22185;48.738;9.324;2023-05-07T09:47:58;22.30;99.90
36132;DHT22;22185;48.738;9.324;2023-05-07T09:50:00;22.40;99.90
36132;DHT22;22185;48.738;9.324;2023-05-07T09:52:05;22.50;99.90
36132;DHT22;22185;48.738;9.324;2023-05-07T09:54:08;22.40;99.90
36132;DHT22;22185;48.738;9.324;2023-05-07T09:56:09;22.50;99.90
36132;DHT22;22185;48.738;9.324;2023-05-07T09:58:12;22.70;99.90
36132;DHT22;22185;48.738;9.324;2023-05-07T10:00:13;22.40;99.90
36132;DHT22;22185;48.738;9.324;2023-05-07T10:02:16;22.80;99.90
36132;DHT22;22185;48.738;9.324;2023-05-07T10:04:19;23.10;99.90
36132;DHT22;22185;48.738;9.324;2023-05-07T10:06:21;23.20;99.90
36132;DHT22;22185;48.738;9.324;2023-05-07T10:08:23;23.50;99.90
36132;DHT22;22185;48.738;9.324;2023-05-07T10:10:26;23.40;99.90
36132;DHT22;22185;48.738;9.324;2023-05-07T10:12:27;23.70;99.90
36132;DHT22;22185;48.738;9.324;2023-05-07T10:14:30;23.40;99.90
36132;DHT22;22185;48.738;9.324;2023-05-07T10:16:32;23.40;99.90
36132;DHT22;22185;48.738;9.324;2023-05-07T10:18:34;23.10;99.90
36132;DHT22;22185;48.738;9.324;2023-05-07T10:20:36;23.30;99.90
36132;DHT22;22185;48.738;9.324;2023-05-07T10:22:40;23.90;99.90
36132;DHT22;22185;48.738;9.324;2023-05-07T10:24:42;23.90;99.90
36132;DHT22;22185;48.738;9.324;2023-05-07T10:26:47;23.90;99.90
36132;DHT22;22185;48.738;9.324;2023-05-07T10:28:51;24.30;99.90
36132;DHT22;22185;48.738;9.324;2023-05-07T10:33:04;24.70;99.90
36132;DHT22;22185;48.738;9.324;2023-05-07T10:35:10;24.70;99.90
36132;DHT22;22185;48.738;9.324;2023-05-07T10:37:14;24.60;99.90
36132;DHT22;22185;48.738;9.324;2023-05-07T10:39:16;24.80;99.90
36132;DHT22;22185;48.738;9.324;2023-05-07T10:41:17;25.10;99.90
36132;DHT22;22185;48.738;9.324;2023-05-07T10:43:20;25.40;99.90
36132;DHT22;22185;48.738;9.324;2023-05-07T10:45:22;25.40;99.90
36132;DHT22;22185;48.738;9.324;2023-05-07T10:47:23;25.40;99.90
36132;DHT22;22185;48.738;9.324;2023-05-07T10:49:25;25.30;99.90
36132;DHT22;22185;48.738;9.324;2023-05-07T10:51:27;25.80;99.90
36132;DHT22;22185;48.738;9.324;2023-05-07T10:53:29;25.70;99.90
36132;DHT22;22185;48.738;9.324;2023-05-07T10:55:31;26.10;99.90
36132;DHT22;22185;48.738;9.324;2023-05-07T10:59:38;26.20;99.90
36132;DHT22;22185;48.738;9.324;2023-05-07T11:01:50;26.70;99.90
36132;DHT22;22185;48.738;9.324;2023-05-07T11:06:14;26.70;99.90
36132;DHT22;22185;48.738;9.324;2023-05-07T11:08:16;26.80;99.90
36132;DHT22;22185;48.738;9.324;2023-05-07T11:10:17;27.20;99.90
36132;DHT22;22185;48.738;9.324;2023-05-07T11:16:42;27.00;99.90
36132;DHT22;22185;48.738;9.324;2023-05-07T11:18:51;26.80;99.90
36132;DHT22;22185;48.738;9.324;2023-05-07T11:22:55;26.10;99.90
36132;DHT22;22185;48.738;9.324;2023-05-07T11:25:05;26.10;99.90
36132;DHT22;22185;48.738;9.324;2023-05-07T11:27:07;26.10;99.90
36132;DHT22;22185;48.738;9.324;2023-05-07T11:29:13;26.30;99.90
36132;DHT22;22185;48.738;9.324;2023-05-07T11:31:15;26.20;99.90
36132;DHT22;22185;48.738;9.324;2023-05-07T11:33:22;26.50;99.90
36132;DHT22;22185;48.738;9.324;2023-05-07T11:35:24;27.40;99.90
36132;DHT22;22185;48.738;9.324;2023-05-07T11:37:26;28.30;99.90
36132;DHT22;22185;48.738;9.324;2023-05-07T11:39:32;28.90;99.90
36132;DHT22;22185;48.738;9.324;2023-05-07T11:41:38;28.50;99.90
36132;DHT22;22185;48.738;9.324;2023-05-07T11:43:53;28.70;99.90
36132;DHT22;22185;48.738;9.324;2023-05-07T11:46:04;28.60;99.90
36132;DHT22;22185;48.738;9.324;2023-05-07T11:48:06;28.00;99.90
36132;DHT22;22185;48.738;9.324;2023-05-07T11:50:08;27.20;99.90
36132;DHT22;22185;48.738;9.324;2023-05-07T11:52:12;26.60;99.90
36132;DHT22;22185;48.738;9.324;2023-05-07T11:54:17;25.90;99.90
36132;DHT22;22185;48.738;9.324;2023-05-07T11:56:19;25.60;99.90
36132;DHT22;22185;48.738;9.324;2023-05-07T11:58:21;25.20;99.90
36132;DHT22;22185;48.738;9.324;2023-05-07T12:00:23;25.60;99.90
36132;DHT22;22185;48.738;9.324;2023-05-07T12:02:25;25.70;99.90
36132;DHT22;22185;48.738;9.324;2023-05-07T12:04:29;25.50;99.90
36132;DHT22;22185;48.738;9.324;2023-05-07T12:06:31;25.30;99.90
36132;DHT22;22185;48.738;9.324;2023-05-07T12:08:37;25.10;99.90
36132;DHT22;22185;48.738;9.324;2023-05-07T12:10:40;25.10;99.90
36132;DHT22;22185;48.738;9.324;2023-05-07T12:12:45;25.10;99.90
36132;DHT22;22185;48.738;9.324;2023-05-07T12:14:47;24.80;99.90
36132;DHT22;22185;48.738;9.324;2023-05-07T12:16:49;24.60;99.90
36132;DHT22;22185;48.738;9.324;2023-05-07T12:18:51;24.50;99.90
36132;DHT22;22185;48.738;9.324;2023-05-07T12:20:54;24.20;99.90
36132;DHT22;22185;48.738;9.324;2023-05-07T12:22:56;24.10;99.90
36132;DHT22;22185;48.738;9.324;2023-05-07T12:24:58;23.90;99.90
36132;DHT22;22185;48.738;9.324;2023-05-07T12:27:01;23.80;99.90
36132;DHT22;22185;48.738;9.324;2023-05-07T12:29:02;23.80;99.90
36132;DHT22;22185;48.738;9.324;2023-05-07T12:31:05;23.80;99.90
36132;DHT22;22185;48.738;9.324;2023-05-07T12:33:07;23.50;99.90
36132;DHT22;22185;48.738;9.324;2023-05-07T12:35:09;23.40;99.90
36132;DHT22;22185;48.738;9.324;2023-05-07T12:37:11;23.10;99.90
36132;DHT22;22185;48.738;9.324;2023-05-07T12:39:14;23.00;99.90
36132;DHT22;22185;48.738;9.324;2023-05-07T12:41:15;22.90;99.90
36132;DHT22;22185;48.738;9.324;2023-05-07T12:43:21;22.90;99.90
36132;DHT22;22185;48.738;9.324;2023-05-07T12:45:23;22.60;99.90
36132;DHT22;22185;48.738;9.324;2023-05-07T12:47:27;22.60;99.90
36132;DHT22;22185;48.738;9.324;2023-05-07T12:49:29;22.50;99.90
36132;DHT22;22185;48.738;9.324;2023-05-07T12:51:30;22.40;99.90
36132;DHT22;22185;48.738;9.324;2023-05-07T12:53:32;22.30;99.90
36132;DHT22;22185;48.738;9.324;2023-05-07T12:55:44;22.30;99.90
36132;DHT22;22185;48.738;9.324;2023-05-07T12:57:49;22.30;99.90
36132;DHT22;22185;48.738;9.324;2023-05-07T12:59:51;22.10;99.90
36132;DHT22;22185;48.738;9.324;2023-05-07T13:01:59;22.00;99.90
36132;DHT22;22185;48.738;9.324;2023-05-07T13:04:01;21.80;99.90
36132;DHT22;22185;48.738;9.324;2023-05-07T13:06:08;21.30;99.90